createdAt,value
2022-10-14T00:00:11.910Z,37.03
2022-10-14T00:00:34.666Z,37.42
2022-10-14T00:01:02.036Z,37.97
2022-10-14T00:01:25.376Z,40.42
2022-10-14T00:01:47.339Z,34.83
2022-10-14T00:02:09.454Z,34.60
2022-10-14T00:02:31.329Z,36.63
2022-10-14T00:02:53.407Z,36.30
2022-10-14T00:03:15.367Z,33.63
2022-10-14T00:03:38.935Z,33.92
2022-10-14T00:04:00.952Z,35.85
2022-10-14T00:04:23.120Z,32.85
2022-10-14T00:04:45.022Z,35.45
2022-10-14T00:05:07.200Z,37.45
2022-10-14T00:05:29.095Z,35.17
2022-10-14T00:05:51.028Z,35.13
2022-10-14T00:06:15.363Z,36.47
2022-10-14T00:06:37.831Z,34.33
2022-10-14T00:07:00.232Z,33.72
2022-10-14T00:07:22.352Z,32.78
2022-10-14T00:07:44.523Z,40.28
2022-10-14T00:08:06.307Z,34.53
2022-10-14T00:08:31.230Z,34.85
2022-10-14T00:08:53.877Z,35.72
2022-10-14T00:09:15.865Z,33.60
2022-10-14T00:09:39.762Z,36.28
2022-10-14T00:10:01.586Z,36.95
2022-10-14T00:10:23.801Z,36.60
2022-10-14T00:10:45.741Z,35.45
2022-10-14T00:11:13.843Z,35.03
2022-10-14T00:11:37.797Z,37.80
2022-10-14T00:11:59.670Z,36.88
2022-10-14T00:12:21.452Z,33.28
2022-10-14T00:12:43.271Z,33.00
2022-10-14T00:13:05.093Z,34.42
2022-10-14T00:13:26.794Z,32.83
2022-10-14T00:13:49.757Z,36.53
2022-10-14T00:14:16.823Z,36.28
2022-10-14T00:14:38.880Z,34.90
2022-10-14T00:15:00.725Z,34.70
2022-10-14T00:15:22.426Z,36.08
2022-10-14T00:15:44.133Z,33.13
2022-10-14T00:16:07.137Z,37.28
2022-10-14T00:16:34.920Z,34.42
2022-10-14T00:16:56.690Z,35.33
2022-10-14T00:17:18.555Z,37.17
2022-10-14T00:17:40.397Z,35.30
2022-10-14T00:18:02.328Z,34.03
2022-10-14T00:18:24.094Z,34.47
2022-10-14T00:18:46.657Z,38.15
2022-10-14T00:19:08.474Z,36.15
2022-10-14T00:19:30.203Z,37.22
2022-10-14T00:19:52.083Z,34.00
2022-10-14T00:20:13.947Z,35.13
2022-10-14T00:20:36.226Z,36.08
2022-10-14T00:21:00.034Z,35.50
2022-10-14T00:21:21.837Z,36.92
2022-10-14T00:21:45.295Z,39.92
2022-10-14T00:22:06.998Z,35.67
2022-10-14T00:22:29.183Z,34.35
2022-10-14T00:22:51.563Z,36.95
2022-10-14T00:23:13.625Z,35.88
2022-10-14T00:23:35.408Z,35.47
2022-10-14T00:23:57.821Z,34.45
2022-10-14T00:24:19.739Z,34.58
2022-10-14T00:24:41.503Z,37.15
2022-10-14T00:25:03.518Z,38.80
2022-10-14T00:25:26.301Z,39.17
2022-10-14T00:25:48.073Z,36.92
2022-10-14T00:26:17.154Z,37.78
2022-10-14T00:26:40.298Z,41.72
2022-10-14T00:27:05.062Z,41.65
2022-10-14T00:27:26.835Z,41.38
2022-10-14T00:27:48.671Z,38.47
2022-10-14T00:28:10.615Z,37.35
2022-10-14T00:28:33.364Z,35.13
2022-10-14T00:28:56.694Z,36.30
2022-10-14T00:29:19.374Z,41.47
2022-10-14T00:29:41.360Z,39.30
2022-10-14T00:30:03.635Z,40.40
2022-10-14T00:30:25.344Z,46.08
2022-10-14T00:31:05.015Z,47.55
2022-10-14T00:31:28.280Z,38.92
2022-10-14T00:31:51.883Z,41.03
2022-10-14T00:32:14.735Z,41.95
2022-10-14T00:32:36.511Z,42.67
2022-10-14T00:32:58.265Z,40.45
2022-10-14T00:33:20.242Z,39.93
2022-10-14T00:33:44.720Z,39.90
2022-10-14T00:34:06.489Z,39.42
2022-10-14T00:34:30.589Z,41.80
2022-10-14T00:34:52.847Z,44.28
2022-10-14T00:35:15.941Z,44.05
2022-10-14T00:35:38.517Z,41.50
2022-10-14T00:36:03.078Z,38.83
2022-10-14T00:36:26.000Z,41.70
2022-10-14T00:36:47.845Z,41.83
2022-10-14T00:37:09.619Z,38.22
2022-10-14T00:37:31.499Z,42.13
2022-10-14T00:37:53.221Z,39.75
2022-10-14T00:38:15.054Z,37.60
2022-10-14T00:38:37.384Z,35.20
2022-10-14T00:38:59.124Z,33.95
2022-10-14T00:39:21.104Z,33.50
2022-10-14T00:39:42.876Z,34.75
2022-10-14T00:40:05.968Z,35.95
2022-10-14T00:40:27.867Z,37.83
2022-10-14T00:40:49.679Z,40.40
2022-10-14T00:41:25.935Z,41.97
2022-10-14T00:41:47.883Z,37.25
2022-10-14T00:42:14.671Z,37.20
2022-10-14T00:42:39.426Z,40.13
2022-10-14T00:43:01.250Z,38.80
2022-10-14T00:43:24.804Z,42.97
2022-10-14T00:44:00.379Z,42.88
2022-10-14T00:44:24.684Z,39.00
2022-10-14T00:44:46.357Z,39.03
2022-10-14T00:45:19.647Z,32.47
2022-10-14T00:45:41.370Z,34.00
2022-10-14T00:46:03.108Z,33.78
2022-10-14T00:46:26.985Z,37.85
2022-10-14T00:46:52.866Z,38.50
2022-10-14T00:47:14.650Z,37.53
2022-10-14T00:47:36.525Z,36.65
2022-10-14T00:47:58.441Z,40.30
2022-10-14T00:48:23.907Z,39.03
2022-10-14T00:48:45.877Z,38.22
2022-10-14T00:49:13.779Z,34.35
2022-10-14T00:49:40.763Z,40.90
2022-10-14T00:50:03.037Z,37.40
2022-10-14T00:50:25.958Z,37.80
2022-10-14T00:50:51.147Z,39.00
2022-10-14T00:51:13.543Z,40.97
2022-10-14T00:51:37.096Z,37.72
2022-10-14T00:52:11.949Z,40.47
2022-10-14T00:52:33.814Z,41.25
2022-10-14T00:52:56.928Z,36.57
2022-10-14T00:53:19.515Z,38.25
2022-10-14T00:53:43.465Z,43.05
2022-10-14T00:54:05.712Z,40.78
2022-10-14T00:54:35.002Z,40.88
2022-10-14T00:55:08.450Z,44.00
2022-10-14T00:55:31.211Z,40.92
2022-10-14T00:55:53.093Z,41.25
2022-10-14T00:56:17.970Z,40.97
2022-10-14T00:56:39.889Z,42.10
2022-10-14T00:57:02.708Z,43.22
2022-10-14T00:57:26.068Z,42.55
2022-10-14T00:57:48.057Z,39.17
2022-10-14T00:58:10.492Z,36.17
2022-10-14T00:58:32.247Z,37.67
2022-10-14T00:58:54.560Z,39.42
2022-10-14T00:59:16.764Z,41.22
2022-10-14T00:59:39.067Z,40.47
2022-10-14T01:00:10.218Z,38.05
2022-10-14T01:00:32.173Z,35.83
2022-10-14T01:00:53.976Z,36.25
2022-10-14T01:01:15.882Z,37.75
2022-10-14T01:01:37.722Z,42.88
2022-10-14T01:01:59.440Z,41.40
2022-10-14T01:02:21.424Z,39.90
2022-10-14T01:02:43.470Z,40.03
2022-10-14T01:03:19.353Z,39.85
2022-10-14T01:03:42.093Z,37.10
2022-10-14T01:04:04.349Z,39.47
2022-10-14T01:04:28.042Z,40.33
2022-10-14T01:04:50.066Z,38.00
2022-10-14T01:05:14.669Z,45.63
2022-10-14T01:05:45.060Z,37.40
2022-10-14T01:06:50.968Z,39.60
2022-10-14T01:07:21.708Z,36.85
2022-10-14T01:08:03.320Z,35.65
2022-10-14T01:08:30.240Z,41.00
2022-10-14T01:09:06.761Z,38.28
2022-10-14T01:09:40.473Z,41.03
2022-10-14T01:10:31.248Z,37.33
2022-10-14T01:11:11.349Z,36.58
2022-10-14T01:12:16.622Z,40.30
2022-10-14T01:13:17.281Z,41.72
2022-10-14T01:13:44.256Z,40.33
2022-10-14T01:14:11.335Z,42.45
2022-10-14T01:15:07.428Z,39.28
2022-10-14T01:15:53.225Z,38.53
2022-10-14T01:16:15.109Z,44.40
2022-10-14T01:16:52.971Z,43.87
2022-10-14T01:17:31.695Z,43.13
2022-10-14T01:18:11.321Z,42.97
2022-10-14T01:19:00.321Z,45.00
2022-10-14T01:19:24.807Z,40.75
2022-10-14T01:19:52.654Z,46.42
2022-10-14T01:20:28.370Z,49.53
2022-10-14T01:20:57.952Z,44.45
2022-10-14T01:21:48.835Z,45.30
2022-10-14T01:22:18.725Z,46.50
2022-10-14T01:23:20.248Z,45.65
2022-10-14T01:24:05.413Z,50.65
2022-10-14T01:24:33.250Z,51.45
2022-10-14T01:24:54.897Z,50.22
2022-10-14T01:25:22.969Z,47.13
2022-10-14T01:26:20.190Z,48.58
2022-10-14T01:27:04.446Z,47.83
2022-10-14T01:27:56.198Z,39.05
2022-10-14T01:28:28.464Z,42.92
2022-10-14T01:29:11.588Z,44.75
2022-10-14T01:30:00.135Z,45.47
2022-10-14T01:30:28.265Z,49.00
2022-10-14T01:31:09.328Z,44.20
2022-10-14T01:31:34.984Z,47.65
2022-10-14T01:32:13.065Z,45.80
2022-10-14T01:32:34.815Z,46.13
2022-10-14T01:33:22.357Z,46.95
2022-10-14T01:33:46.683Z,47.00
2022-10-14T01:34:12.397Z,45.40
2022-10-14T01:34:48.531Z,49.08
2022-10-14T01:35:46.718Z,46.45
2022-10-14T01:36:11.251Z,44.90
2022-10-14T01:36:44.078Z,39.92
2022-10-14T01:37:15.507Z,44.97
2022-10-14T01:37:45.206Z,45.00
2022-10-14T01:38:18.163Z,45.60
2022-10-14T01:38:51.988Z,49.13
2022-10-14T01:39:21.856Z,48.75
2022-10-14T01:39:49.862Z,48.47
2022-10-14T01:40:18.658Z,48.30
2022-10-14T01:40:52.636Z,46.90
2022-10-14T01:41:43.358Z,48.63
2022-10-14T01:42:16.608Z,49.38
2022-10-14T01:42:41.564Z,47.95
2022-10-14T01:43:05.283Z,54.72
2022-10-14T01:43:30.071Z,55.72
2022-10-14T01:43:55.063Z,52.13
2022-10-14T01:44:21.432Z,51.38
2022-10-14T01:44:47.894Z,48.80
2022-10-14T01:45:15.808Z,48.75
2022-10-14T01:45:39.673Z,50.70
2022-10-14T01:46:04.331Z,46.45
2022-10-14T01:46:27.404Z,50.78
2022-10-14T01:46:54.466Z,49.38
2022-10-14T01:47:19.989Z,48.80
2022-10-14T01:47:42.449Z,50.40
2022-10-14T01:48:06.498Z,50.13
2022-10-14T01:48:36.906Z,51.20
2022-10-14T01:49:03.636Z,49.22
2022-10-14T01:49:57.759Z,46.88
2022-10-14T01:50:26.886Z,47.90
2022-10-14T01:50:52.472Z,47.65
2022-10-14T01:51:19.834Z,45.45
2022-10-14T01:51:47.488Z,44.50
2022-10-14T01:52:20.332Z,45.47
2022-10-14T01:53:09.636Z,42.42
2022-10-14T01:53:42.865Z,43.08
2022-10-14T01:54:18.001Z,42.75
2022-10-14T01:54:42.862Z,46.95
2022-10-14T01:55:09.865Z,47.53
2022-10-14T01:55:41.520Z,46.97
2022-10-14T01:56:04.459Z,51.58
2022-10-14T01:56:30.112Z,49.20
2022-10-14T01:56:55.627Z,47.55
2022-10-14T01:57:22.225Z,45.38
2022-10-14T01:57:45.674Z,44.92
2022-10-14T01:58:09.291Z,41.97
2022-10-14T01:58:32.868Z,42.17
2022-10-14T01:58:56.435Z,49.83
2022-10-14T01:59:20.728Z,50.30
2022-10-14T01:59:44.223Z,43.88
2022-10-14T02:00:07.288Z,44.45
2022-10-14T02:00:29.110Z,44.97
2022-10-14T02:00:51.374Z,46.47
2022-10-14T02:01:13.213Z,43.88
2022-10-14T02:01:36.682Z,44.05
2022-10-14T02:01:58.597Z,44.10
2022-10-14T02:02:21.096Z,46.78
2022-10-14T02:02:43.287Z,45.10
2022-10-14T02:03:06.485Z,42.20
2022-10-14T02:03:42.199Z,41.15
2022-10-14T02:04:18.495Z,45.67
2022-10-14T02:04:40.411Z,42.20
2022-10-14T02:05:05.914Z,40.63
2022-10-14T02:05:54.193Z,40.22
2022-10-14T02:06:33.020Z,43.25
2022-10-14T02:07:14.526Z,44.83
2022-10-14T02:07:44.307Z,41.70
2022-10-14T02:08:38.969Z,38.10
2022-10-14T02:09:22.645Z,41.92
2022-10-14T02:10:17.686Z,41.45
2022-10-14T02:11:08.411Z,44.22
2022-10-14T02:11:41.328Z,47.30
2022-10-14T02:12:23.531Z,46.35
2022-10-14T02:13:22.562Z,43.08
2022-10-14T02:13:44.289Z,44.28
2022-10-14T02:14:32.282Z,42.42
2022-10-14T02:14:57.342Z,41.65
2022-10-14T02:15:49.666Z,41.60
2022-10-14T02:16:38.460Z,38.78
2022-10-14T02:17:19.648Z,44.20
2022-10-14T02:17:41.336Z,44.10
2022-10-14T02:18:24.886Z,44.65
2022-10-14T02:19:07.538Z,44.92
2022-10-14T02:19:29.314Z,46.08
2022-10-14T02:20:01.668Z,43.15
2022-10-14T02:20:26.818Z,41.15
2022-10-14T02:20:56.861Z,50.20
2022-10-14T02:21:37.097Z,42.13
2022-10-14T02:22:08.989Z,41.65
2022-10-14T02:22:44.841Z,42.42
2022-10-14T02:23:08.606Z,41.80
2022-10-14T02:23:39.389Z,42.08
2022-10-14T02:24:07.976Z,38.35
2022-10-14T02:24:40.475Z,37.20
2022-10-14T02:25:12.468Z,39.75
2022-10-14T02:25:37.336Z,41.03
2022-10-14T02:26:00.574Z,43.20
2022-10-14T02:26:24.047Z,42.08
2022-10-14T02:26:49.741Z,42.13
2022-10-14T02:27:15.654Z,45.10
2022-10-14T02:27:39.720Z,42.92
2022-10-14T02:28:03.856Z,41.42
2022-10-14T02:28:29.471Z,44.35
2022-10-14T02:28:53.355Z,40.25
2022-10-14T02:29:17.548Z,41.03
2022-10-14T02:29:43.622Z,35.50
2022-10-14T02:30:07.717Z,42.88
2022-10-14T02:30:33.061Z,50.60
2022-10-14T02:31:00.956Z,49.28
2022-10-14T02:31:24.885Z,45.25
2022-10-14T02:31:48.011Z,47.42
2022-10-14T02:32:11.416Z,49.20
2022-10-14T02:32:34.176Z,56.55
2022-10-14T02:32:59.162Z,54.78
2022-10-14T02:33:23.104Z,49.00
2022-10-14T02:33:50.215Z,48.97
2022-10-14T02:34:16.234Z,47.67
2022-10-14T02:34:38.544Z,50.53
2022-10-14T02:35:02.800Z,48.63
2022-10-14T02:35:25.400Z,46.67
2022-10-14T02:35:49.246Z,48.05
2022-10-14T02:36:16.411Z,49.20
2022-10-14T02:36:39.930Z,45.13
2022-10-14T02:37:02.405Z,52.50
2022-10-14T02:37:26.901Z,55.38
2022-10-14T02:37:51.129Z,51.33
2022-10-14T02:38:13.095Z,47.45
2022-10-14T02:38:36.042Z,50.80
2022-10-14T02:39:00.584Z,51.70
2022-10-14T02:39:29.119Z,50.83
2022-10-14T02:40:18.697Z,46.53
2022-10-14T02:40:44.485Z,50.65
2022-10-14T02:41:12.746Z,48.83
2022-10-14T02:41:36.897Z,43.78
2022-10-14T02:41:58.920Z,43.67
2022-10-14T02:42:21.002Z,43.53
2022-10-14T02:42:43.090Z,45.20
2022-10-14T02:43:05.514Z,48.47
2022-10-14T02:43:27.393Z,45.53
2022-10-14T02:43:49.319Z,49.35
2022-10-14T02:44:11.115Z,45.42
2022-10-14T02:44:33.271Z,44.17
2022-10-14T02:44:58.285Z,43.40
2022-10-14T02:45:20.805Z,39.80
2022-10-14T02:45:44.459Z,45.20
2022-10-14T02:46:06.793Z,39.97
2022-10-14T02:46:32.396Z,39.20
2022-10-14T02:46:56.286Z,42.60
2022-10-14T02:47:18.869Z,38.03
2022-10-14T02:47:40.641Z,38.05
2022-10-14T02:48:02.856Z,40.95
2022-10-14T02:48:24.694Z,46.20
2022-10-14T02:48:46.584Z,46.13
2022-10-14T02:49:08.317Z,43.15
2022-10-14T02:49:30.169Z,42.60
2022-10-14T02:49:52.420Z,44.20
2022-10-14T02:50:14.564Z,43.13
2022-10-14T02:50:36.893Z,45.38
2022-10-14T02:50:58.666Z,46.90
2022-10-14T02:51:20.563Z,47.00
2022-10-14T02:51:52.098Z,48.08
2022-10-14T02:52:13.903Z,53.92
2022-10-14T02:52:36.429Z,52.95
2022-10-14T02:52:58.243Z,52.17
2022-10-14T02:53:20.023Z,52.00
2022-10-14T02:53:42.256Z,53.28
2022-10-14T02:54:04.034Z,54.22
2022-10-14T02:54:26.799Z,53.38
2022-10-14T02:54:48.535Z,53.33
2022-10-14T02:55:10.339Z,54.90
2022-10-14T02:55:32.481Z,52.95
2022-10-14T02:55:54.500Z,54.65
2022-10-14T02:56:56.717Z,56.40
2022-10-14T02:57:18.556Z,55.28
2022-10-14T02:57:40.354Z,57.97
2022-10-14T02:58:02.134Z,54.58
2022-10-14T02:58:23.969Z,50.25
2022-10-14T02:58:46.107Z,49.42
2022-10-14T02:59:08.196Z,46.00
2022-10-14T02:59:30.259Z,49.70
2022-10-14T02:59:52.705Z,49.80
2022-10-14T03:00:14.887Z,48.10
2022-10-14T03:00:36.707Z,45.15
2022-10-14T03:00:58.497Z,47.92
2022-10-14T03:01:20.355Z,47.50
2022-10-14T03:01:42.268Z,49.17
2022-10-14T03:02:04.178Z,46.35
2022-10-14T03:02:26.009Z,45.95
2022-10-14T03:02:47.898Z,53.60
2022-10-14T03:03:09.841Z,49.80
2022-10-14T03:03:31.541Z,49.33
2022-10-14T03:03:53.241Z,49.78
2022-10-14T03:04:15.019Z,48.40
2022-10-14T03:04:37.055Z,47.35
2022-10-14T03:04:59.013Z,45.30
2022-10-14T03:05:20.699Z,48.10
2022-10-14T03:05:43.744Z,49.95
2022-10-14T03:06:05.817Z,50.55
2022-10-14T03:06:28.607Z,46.13
2022-10-14T03:06:51.574Z,41.70
2022-10-14T03:07:13.356Z,46.10
2022-10-14T03:07:35.229Z,46.13
2022-10-14T03:07:57.173Z,46.05
2022-10-14T03:08:19.007Z,46.75
2022-10-14T03:08:40.916Z,46.35
2022-10-14T03:09:03.503Z,47.92
2022-10-14T03:09:25.507Z,47.35
2022-10-14T03:09:47.205Z,48.53
2022-10-14T03:10:09.245Z,49.15
2022-10-14T03:10:30.965Z,48.72
2022-10-14T03:10:52.686Z,47.20
2022-10-14T03:11:14.613Z,47.88
2022-10-14T03:11:36.491Z,48.72
2022-10-14T03:11:58.321Z,48.58
2022-10-14T03:12:20.365Z,48.47
2022-10-14T03:12:42.440Z,49.35
2022-10-14T03:13:04.194Z,51.53
2022-10-14T03:13:26.169Z,52.90
2022-10-14T03:13:48.056Z,52.83
2022-10-14T03:14:09.841Z,51.93
2022-10-14T03:14:31.975Z,54.42
2022-10-14T03:14:53.708Z,51.95
2022-10-14T03:15:16.244Z,54.33
2022-10-14T03:15:37.948Z,52.53
2022-10-14T03:16:00.022Z,53.45
2022-10-14T03:16:21.895Z,54.53
2022-10-14T03:16:43.916Z,51.53
2022-10-14T03:17:05.676Z,52.97
2022-10-14T03:17:27.416Z,47.35
2022-10-14T03:17:49.923Z,49.22
2022-10-14T03:18:11.864Z,50.65
2022-10-14T03:18:35.122Z,48.78
2022-10-14T03:18:56.823Z,50.75
2022-10-14T03:19:18.565Z,49.50
2022-10-14T03:19:40.515Z,49.15
2022-10-14T03:20:03.444Z,48.53
2022-10-14T03:20:25.286Z,43.88
2022-10-14T03:20:47.449Z,41.88
2022-10-14T03:21:09.278Z,42.33
2022-10-14T03:21:32.131Z,41.45
2022-10-14T03:21:54.023Z,47.65
2022-10-14T03:22:16.954Z,45.80
2022-10-14T03:22:39.051Z,47.97
2022-10-14T03:23:00.768Z,46.88
2022-10-14T03:23:22.556Z,47.47
2022-10-14T03:23:44.907Z,42.85
2022-10-14T03:24:07.067Z,41.97
2022-10-14T03:24:28.810Z,44.25
2022-10-14T03:24:50.798Z,46.60
2022-10-14T03:25:12.565Z,44.95
2022-10-14T03:25:34.478Z,46.55
2022-10-14T03:25:56.219Z,42.47
2022-10-14T03:26:18.108Z,42.55
2022-10-14T03:26:39.901Z,45.90
2022-10-14T03:27:01.714Z,43.78
2022-10-14T03:27:23.820Z,40.38
2022-10-14T03:27:45.563Z,42.40
2022-10-14T03:28:07.289Z,39.83
2022-10-14T03:28:29.035Z,40.25
2022-10-14T03:28:51.056Z,44.42
2022-10-14T03:29:12.927Z,43.40
2022-10-14T03:29:34.678Z,44.72
2022-10-14T03:29:56.445Z,41.83
2022-10-14T03:30:18.477Z,42.33
2022-10-14T03:30:40.591Z,43.92
2022-10-14T03:31:02.339Z,42.47
2022-10-14T03:31:24.082Z,46.53
2022-10-14T03:31:45.947Z,47.10
2022-10-14T03:32:07.635Z,44.15
2022-10-14T03:32:29.462Z,44.55
2022-10-14T03:32:51.383Z,45.60
2022-10-14T03:33:15.036Z,46.10
2022-10-14T03:33:37.052Z,44.35
2022-10-14T03:33:59.033Z,42.72
2022-10-14T03:34:20.970Z,46.60
2022-10-14T03:34:42.767Z,49.17
2022-10-14T03:35:04.729Z,53.38
2022-10-14T03:35:26.589Z,54.33
2022-10-14T03:35:48.294Z,57.75
2022-10-14T03:36:10.125Z,56.30
2022-10-14T03:36:32.160Z,55.13
2022-10-14T03:36:55.430Z,58.30
2022-10-14T03:37:17.161Z,56.33
2022-10-14T03:37:38.862Z,51.60
2022-10-14T03:38:03.468Z,50.22
2022-10-14T03:38:25.202Z,48.13
2022-10-14T03:38:46.932Z,45.55
2022-10-14T03:39:10.732Z,46.92
2022-10-14T03:39:32.781Z,45.90
2022-10-14T03:39:54.549Z,47.05
2022-10-14T03:40:16.305Z,49.17
2022-10-14T03:40:38.232Z,49.30
2022-10-14T03:40:59.957Z,50.95
2022-10-14T03:41:21.642Z,51.95
2022-10-14T03:41:43.407Z,50.63
2022-10-14T03:42:05.166Z,48.97
2022-10-14T03:42:26.926Z,45.92
2022-10-14T03:42:48.687Z,45.85
2022-10-14T03:43:10.430Z,54.28
2022-10-14T03:43:32.397Z,54.65
2022-10-14T03:43:54.096Z,59.05
2022-10-14T03:44:15.832Z,55.47
2022-10-14T03:44:37.528Z,57.22
2022-10-14T03:44:59.270Z,57.58
2022-10-14T03:45:20.969Z,49.63
2022-10-14T03:45:47.305Z,50.95
2022-10-14T03:46:09.081Z,53.47
2022-10-14T03:46:32.873Z,51.53
2022-10-14T03:46:54.611Z,50.40
2022-10-14T03:47:16.812Z,49.78
2022-10-14T03:47:38.659Z,45.88
2022-10-14T03:48:00.429Z,48.60
2022-10-14T03:48:22.777Z,47.55
2022-10-14T03:48:45.359Z,48.00
2022-10-14T03:49:07.878Z,47.83
2022-10-14T03:49:29.922Z,49.35
2022-10-14T03:49:52.085Z,47.72
2022-10-14T03:50:16.648Z,45.70
2022-10-14T03:50:39.001Z,47.60
2022-10-14T03:51:01.065Z,44.10
2022-10-14T03:51:23.295Z,43.63
2022-10-14T03:51:45.747Z,48.40
2022-10-14T03:52:08.160Z,47.65
2022-10-14T03:52:29.942Z,53.42
2022-10-14T03:52:55.445Z,50.55
2022-10-14T03:53:17.627Z,45.35
2022-10-14T03:53:39.315Z,49.03
2022-10-14T03:54:01.017Z,45.50
2022-10-14T03:54:22.752Z,43.80
2022-10-14T03:54:44.532Z,43.78
2022-10-14T03:55:06.713Z,41.45
2022-10-14T03:55:28.608Z,40.83
2022-10-14T03:55:50.362Z,44.78
2022-10-14T03:56:12.140Z,45.67
2022-10-14T03:56:34.485Z,45.75
2022-10-14T03:56:56.225Z,45.45
2022-10-14T03:57:18.555Z,41.33
2022-10-14T03:57:40.280Z,44.70
2022-10-14T03:58:01.997Z,46.88
2022-10-14T03:58:23.719Z,48.35
2022-10-14T03:58:45.453Z,46.20
2022-10-14T03:59:07.165Z,42.70
2022-10-14T03:59:28.922Z,43.20
2022-10-14T03:59:50.767Z,44.55
2022-10-14T04:00:13.647Z,43.85
2022-10-14T04:00:35.789Z,45.88
2022-10-14T04:00:57.523Z,46.13
2022-10-14T04:01:19.326Z,51.85
2022-10-14T04:01:41.204Z,50.47
2022-10-14T04:02:03.043Z,48.50
2022-10-14T04:02:24.881Z,52.13
2022-10-14T04:02:46.619Z,51.55
2022-10-14T04:03:08.577Z,52.38
2022-10-14T04:03:30.686Z,48.88
2022-10-14T04:03:52.973Z,45.90
2022-10-14T04:04:14.916Z,54.33
2022-10-14T04:04:37.020Z,53.22
2022-10-14T04:05:01.032Z,50.72
2022-10-14T04:05:23.632Z,48.47
2022-10-14T04:05:45.342Z,44.83
2022-10-14T04:06:09.494Z,46.05
2022-10-14T04:06:31.701Z,50.47
2022-10-14T04:06:54.259Z,54.42
2022-10-14T04:07:16.073Z,44.90
2022-10-14T04:07:37.946Z,51.42
2022-10-14T04:08:01.123Z,56.60
2022-10-14T04:08:23.179Z,53.28
2022-10-14T04:08:44.924Z,49.35
2022-10-14T04:09:06.994Z,46.33
2022-10-14T04:09:29.302Z,52.85
2022-10-14T04:09:50.990Z,54.97
2022-10-14T04:10:12.690Z,51.10
2022-10-14T04:10:35.080Z,48.22
2022-10-14T04:10:57.742Z,58.53
2022-10-14T04:11:19.460Z,61.95
2022-10-14T04:11:41.218Z,56.00
2022-10-14T04:12:03.139Z,52.65
2022-10-14T04:12:25.029Z,49.38
2022-10-14T04:12:46.804Z,51.55
2022-10-14T04:13:09.002Z,54.33
2022-10-14T04:13:30.713Z,52.47
2022-10-14T04:13:52.482Z,51.70
2022-10-14T04:14:14.739Z,54.30
2022-10-14T04:14:36.423Z,54.42
2022-10-14T04:15:33.868Z,53.33
2022-10-14T04:15:55.596Z,53.33
2022-10-14T04:16:17.322Z,49.83
2022-10-14T04:16:39.180Z,51.90
2022-10-14T04:17:01.132Z,63.90
2022-10-14T04:17:26.678Z,70.07
2022-10-14T04:17:48.932Z,51.20
2022-10-14T04:18:10.682Z,59.35
2022-10-14T04:18:32.612Z,71.60
2022-10-14T04:18:54.588Z,63.30
2022-10-14T04:19:17.093Z,61.17
2022-10-14T04:19:39.777Z,59.78
2022-10-14T04:20:01.991Z,53.83
2022-10-14T04:20:24.105Z,55.97
2022-10-14T04:20:45.888Z,59.45
2022-10-14T04:21:11.122Z,62.55
2022-10-14T04:21:33.358Z,74.70
2022-10-14T04:21:55.049Z,56.47
2022-10-14T04:22:17.700Z,61.65
2022-10-14T04:22:39.445Z,63.05
2022-10-14T04:23:01.217Z,51.58
2022-10-14T04:23:22.891Z,52.58
2022-10-14T04:23:46.062Z,60.63
2022-10-14T04:24:08.612Z,56.38
2022-10-14T04:24:31.796Z,66.70
2022-10-14T04:24:53.884Z,64.88
2022-10-14T04:25:15.653Z,64.80
2022-10-14T04:25:39.536Z,65.88
2022-10-14T04:26:09.341Z,59.58
2022-10-14T04:26:31.025Z,59.20
2022-10-14T04:26:53.136Z,70.25
2022-10-14T04:27:15.101Z,48.58
2022-10-14T04:27:37.026Z,62.65
2022-10-14T04:27:59.181Z,51.55
2022-10-14T04:28:21.588Z,56.25
2022-10-14T04:28:43.566Z,51.83
2022-10-14T04:29:06.189Z,53.13
2022-10-14T04:29:28.560Z,54.80
2022-10-14T04:29:50.633Z,62.33
2022-10-14T04:30:12.885Z,55.10
2022-10-14T04:30:35.373Z,54.03
2022-10-14T04:30:57.154Z,62.92
2022-10-14T04:31:18.970Z,65.05
2022-10-14T04:31:40.649Z,63.50
2022-10-14T04:32:02.463Z,96.20
2022-10-14T04:32:24.757Z,95.00
2022-10-14T04:32:46.854Z,53.63
2022-10-14T04:33:08.893Z,53.67
2022-10-14T04:33:31.011Z,52.80
2022-10-14T04:33:53.153Z,57.88
2022-10-14T04:34:15.130Z,52.92
2022-10-14T04:34:40.006Z,60.33
2022-10-14T04:35:01.969Z,74.57
2022-10-14T04:35:23.655Z,58.22
2022-10-14T04:35:45.563Z,46.47
2022-10-14T04:36:07.918Z,47.25
2022-10-14T04:36:29.829Z,50.25
2022-10-14T04:36:53.865Z,51.22
2022-10-14T04:37:16.063Z,49.92
2022-10-14T04:37:37.828Z,63.00
2022-10-14T04:37:59.664Z,51.88
2022-10-14T04:38:21.389Z,40.85
2022-10-14T04:38:43.330Z,52.45
2022-10-14T04:39:05.910Z,61.30
2022-10-14T04:39:28.084Z,43.45
2022-10-14T04:39:49.813Z,48.53
2022-10-14T04:40:11.592Z,62.97
2022-10-14T04:40:33.293Z,62.30
2022-10-14T04:40:55.965Z,47.03
2022-10-14T04:41:17.984Z,53.47
2022-10-14T04:41:39.916Z,47.58
2022-10-14T04:42:01.674Z,38.88
2022-10-14T04:42:23.884Z,51.40
2022-10-14T04:42:45.884Z,45.55
2022-10-14T04:43:07.744Z,39.03
2022-10-14T04:43:30.087Z,47.55
2022-10-14T04:43:51.837Z,59.92
2022-10-14T04:44:13.648Z,57.30
2022-10-14T04:44:35.376Z,65.45
2022-10-14T04:44:57.411Z,67.35
2022-10-14T04:45:19.131Z,74.80
2022-10-14T04:45:41.838Z,117.25
2022-10-14T04:46:04.160Z,136.15
2022-10-14T04:46:26.194Z,111.60
2022-10-14T04:46:47.954Z,87.53
2022-10-14T04:47:09.925Z,56.35
2022-10-14T04:47:31.659Z,51.53
2022-10-14T04:47:53.323Z,66.93
2022-10-14T04:48:16.032Z,60.78
2022-10-14T04:48:37.892Z,45.55
2022-10-14T04:48:59.602Z,49.55
2022-10-14T04:49:21.882Z,41.15
2022-10-14T04:49:43.592Z,43.97
2022-10-14T04:50:05.772Z,50.80
2022-10-14T04:50:27.698Z,65.22
2022-10-14T04:50:53.020Z,56.88
2022-10-14T04:51:14.992Z,43.33
2022-10-14T04:51:36.930Z,42.58
2022-10-14T04:52:00.070Z,38.85
2022-10-14T04:52:22.096Z,66.65
2022-10-14T04:52:44.320Z,49.17
2022-10-14T04:53:09.467Z,63.65
2022-10-14T04:53:33.773Z,42.53
2022-10-14T04:53:55.477Z,46.60
2022-10-14T04:54:17.223Z,48.22
2022-10-14T04:54:38.986Z,51.53
2022-10-14T04:55:00.843Z,53.92
2022-10-14T04:55:22.581Z,52.75
2022-10-14T04:55:49.527Z,49.10
2022-10-14T04:56:11.313Z,54.35
2022-10-14T04:56:33.023Z,44.60
2022-10-14T04:56:54.830Z,44.38
2022-10-14T04:57:16.605Z,58.17
2022-10-14T04:57:40.651Z,59.70
2022-10-14T04:58:02.400Z,42.28
2022-10-14T04:58:24.203Z,42.45
2022-10-14T04:58:46.055Z,40.50
2022-10-14T04:59:07.992Z,55.97
2022-10-14T04:59:29.811Z,45.50
2022-10-14T04:59:51.531Z,36.78
2022-10-14T05:00:13.736Z,41.65
2022-10-14T05:00:35.463Z,43.42
2022-10-14T05:00:57.431Z,47.47
2022-10-14T05:01:19.449Z,45.03
2022-10-14T05:01:41.878Z,38.22
2022-10-14T05:02:03.721Z,43.75
2022-10-14T05:02:25.524Z,47.15
2022-10-14T05:02:47.917Z,42.83
2022-10-14T05:03:09.765Z,56.63
2022-10-14T05:03:31.558Z,51.78
2022-10-14T05:03:53.899Z,43.92
2022-10-14T05:04:15.668Z,52.60
2022-10-14T05:04:37.383Z,46.15
2022-10-14T05:04:59.593Z,42.33
2022-10-14T05:05:21.556Z,44.53
2022-10-14T05:05:43.256Z,37.17
2022-10-14T05:06:05.148Z,41.15
2022-10-14T05:06:29.317Z,42.97
2022-10-14T05:06:51.205Z,53.85
2022-10-14T05:07:12.953Z,50.72
2022-10-14T05:07:35.542Z,66.50
2022-10-14T05:07:57.309Z,45.53
2022-10-14T05:08:19.544Z,33.13
2022-10-14T05:08:41.475Z,37.50
2022-10-14T05:09:04.506Z,48.30
2022-10-14T05:09:26.366Z,49.63
2022-10-14T05:09:51.193Z,49.90
2022-10-14T05:10:14.854Z,55.58
2022-10-14T05:10:36.643Z,43.35
2022-10-14T05:10:58.658Z,43.63
2022-10-14T05:11:20.390Z,44.65
2022-10-14T05:11:42.081Z,40.75
2022-10-14T05:12:04.282Z,31.33
2022-10-14T05:12:26.356Z,37.65
2022-10-14T05:12:49.231Z,59.70
2022-10-14T05:13:11.199Z,51.90
2022-10-14T05:13:32.997Z,49.38
2022-10-14T05:13:54.996Z,62.90
2022-10-14T05:14:16.819Z,53.70
2022-10-14T05:14:38.558Z,37.40
2022-10-14T05:15:00.431Z,34.83
2022-10-14T05:15:22.560Z,39.50
2022-10-14T05:15:44.234Z,59.65
2022-10-14T05:16:06.912Z,57.03
2022-10-14T05:16:28.880Z,55.42
2022-10-14T05:16:50.643Z,55.92
2022-10-14T05:17:12.393Z,37.75
2022-10-14T05:17:34.505Z,35.47
2022-10-14T05:17:56.249Z,46.72
2022-10-14T05:18:17.989Z,43.97
2022-10-14T05:18:39.942Z,62.72
2022-10-14T05:19:01.878Z,57.95
2022-10-14T05:19:23.658Z,37.15
2022-10-14T05:19:45.390Z,37.90